sensor_id;sensor_type;location;lat;lon;timestamp;temperature;humidity
41324;DHT22;27073;51.128;4.220;2023-03-29T00:01:29;8.80;99.90
41324;DHT22;27073;51.128;4.220;2023-03-29T00:03:58;8.70;99.90
41324;DHT22;27073;51.128;4.220;2023-03-29T00:06:25;8.60;99.90
41324;DHT22;27073;51.128;4.220;2023-03-29T00:08:58;8.50;99.90
41324;DHT22;27073;51.128;4.220;2023-03-29T00:11:24;8.60;99.90
41324;DHT22;27073;51.128;4.220;2023-03-29T00:13:50;8.60;99.90
41324;DHT22;27073;51.128;4.220;2023-03-29T00:16:16;8.60;99.90
41324;DHT22;27073;51.128;4.220;2023-03-29T00:18:43;8.70;99.90
41324;DHT22;27073;51.128;4.220;2023-03-29T00:21:08;8.60;99.90
41324;DHT22;27073;51.128;4.220;2023-03-29T00:23:34;8.70;99.90
41324;DHT22;27073;51.128;4.220;2023-03-29T00:26:00;8.80;99.90
41324;DHT22;27073;51.128;4.220;2023-03-29T00:28:26;8.80;99.90
41324;DHT22;27073;51.128;4.220;2023-03-29T00:30:52;8.90;99.90
41324;DHT22;27073;51.128;4.220;2023-03-29T00:33:19;8.80;99.90
41324;DHT22;27073;51.128;4.220;2023-03-29T00:35:46;8.60;99.90
41324;DHT22;27073;51.128;4.220;2023-03-29T00:38:15;8.70;99.90
41324;DHT22;27073;51.128;4.220;2023-03-29T00:40:43;8.70;99.90
41324;DHT22;27073;51.128;4.220;2023-03-29T00:43:13;8.60;99.90
41324;DHT22;27073;51.128;4.220;2023-03-29T00:45:40;8.70;99.90
41324;DHT22;27073;51.128;4.220;2023-03-29T00:48:09;8.60;99.90
41324;DHT22;27073;51.128;4.220;2023-03-29T00:50:54;8.60;99.90
41324;DHT22;27073;51.128;4.220;2023-03-29T00:53:29;8.60;99.90
41324;DHT22;27073;51.128;4.220;2023-03-29T00:56:05;8.60;99.90
41324;DHT22;27073;51.128;4.220;2023-03-29T01:01:18;8.60;99.90
41324;DHT22;27073;51.128;4.220;2023-03-29T01:03:53;8.60;99.90
41324;DHT22;27073;51.128;4.220;2023-03-29T01:06:23;8.50;99.90
41324;DHT22;27073;51.128;4.220;2023-03-29T01:08:56;8.50;99.90
41324;DHT22;27073;51.128;4.220;2023-03-29T01:11:28;8.70;99.90
41324;DHT22;27073;51.128;4.220;2023-03-29T01:14:16;8.60;99.90
41324;DHT22;27073;51.128;4.220;2023-03-29T01:16:43;8.70;99.90
41324;DHT22;27073;51.128;4.220;2023-03-29T01:19:12;8.80;99.90
41324;DHT22;27073;51.128;4.220;2023-03-29T01:21:51;8.60;99.90
41324;DHT22;27073;51.128;4.220;2023-03-29T01:27:14;8.70;99.90
41324;DHT22;27073;51.128;4.220;2023-03-29T01:29:46;8.70;99.90
41324;DHT22;27073;51.128;4.220;2023-03-29T01:35:07;8.60;99.90
41324;DHT22;27073;51.128;4.220;2023-03-29T01:37:39;8.70;99.90
41324;DHT22;27073;51.128;4.220;2023-03-29T01:40:08;8.70;99.90
41324;DHT22;27073;51.128;4.220;2023-03-29T01:42:53;8.70;99.90
41324;DHT22;27073;51.128;4.220;2023-03-29T01:45:25;8.70;99.90
41324;DHT22;27073;51.128;4.220;2023-03-29T01:48:11;8.70;1.00
41324;DHT22;27073;51.128;4.220;2023-03-29T01:53:37;8.70;1.00
41324;DHT22;27073;51.128;4.220;2023-03-29T01:56:13;8.80;1.00
41324;DHT22;27073;51.128;4.220;2023-03-29T01:58:44;8.90;99.90
41324;DHT22;27073;51.128;4.220;2023-03-29T02:01:12;8.90;99.90
41324;DHT22;27073;51.128;4.220;2023-03-29T02:03:46;9.00;99.90
41324;DHT22;27073;51.128;4.220;2023-03-29T02:06:18;8.80;99.90
41324;DHT22;27073;51.128;4.220;2023-03-29T02:08:45;8.90;99.90
41324;DHT22;27073;51.128;4.220;2023-03-29T02:11:13;9.00;99.90
41324;DHT22;27073;51.128;4.220;2023-03-29T02:13:38;8.90;99.90
41324;DHT22;27073;51.128;4.220;2023-03-29T02:16:09;8.90;99.90
41324;DHT22;27073;51.128;4.220;2023-03-29T02:18:38;8.80;1.00
41324;DHT22;27073;51.128;4.220;2023-03-29T02:21:08;8.70;1.00
41324;DHT22;27073;51.128;4.220;2023-03-29T02:23:39;8.70;1.00
41324;DHT22;27073;51.128;4.220;2023-03-29T02:26:10;8.80;1.00
41324;DHT22;27073;51.128;4.220;2023-03-29T02:28:39;8.70;1.00
41324;DHT22;27073;51.128;4.220;2023-03-29T02:31:29;8.60;1.00
41324;DHT22;27073;51.128;4.220;2023-03-29T02:34:05;8.60;1.00
41324;DHT22;27073;51.128;4.220;2023-03-29T02:36:39;8.70;1.00
41324;DHT22;27073;51.128;4.220;2023-03-29T02:39:07;8.70;1.00
41324;DHT22;27073;51.128;4.220;2023-03-29T02:41:35;8.70;1.00
41324;DHT22;27073;51.128;4.220;2023-03-29T02:44:05;8.70;1.00
41324;DHT22;27073;51.128;4.220;2023-03-29T02:46:33;8.80;1.00
41324;DHT22;27073;51.128;4.220;2023-03-29T02:48:59;8.80;1.00
41324;DHT22;27073;51.128;4.220;2023-03-29T02:51:31;8.80;1.00
41324;DHT22;27073;51.128;4.220;2023-03-29T02:54:10;8.70;1.00
41324;DHT22;27073;51.128;4.220;2023-03-29T02:56:45;8.80;1.00
41324;DHT22;27073;51.128;4.220;2023-03-29T02:59:12;8.70;1.00
41324;DHT22;27073;51.128;4.220;2023-03-29T03:01:39;8.80;1.00
41324;DHT22;27073;51.128;4.220;2023-03-29T03:04:08;8.70;1.00
41324;DHT22;27073;51.128;4.220;2023-03-29T03:06:37;8.80;1.00
41324;DHT22;27073;51.128;4.220;2023-03-29T03:09:04;8.90;1.00
41324;DHT22;27073;51.128;4.220;2023-03-29T03:11:33;8.90;1.00
41324;DHT22;27073;51.128;4.220;2023-03-29T03:13:59;8.90;1.00
41324;DHT22;27073;51.128;4.220;2023-03-29T03:16:25;8.80;1.00
41324;DHT22;27073;51.128;4.220;2023-03-29T03:18:51;8.90;1.00
41324;DHT22;27073;51.128;4.220;2023-03-29T03:21:20;9.00;1.00
41324;DHT22;27073;51.128;4.220;2023-03-29T03:23:46;9.10;1.00
41324;DHT22;27073;51.128;4.220;2023-03-29T03:26:14;9.10;1.00
41324;DHT22;27073;51.128;4.220;2023-03-29T03:28:41;9.10;1.00
41324;DHT22;27073;51.128;4.220;2023-03-29T03:31:14;9.10;1.00
41324;DHT22;27073;51.128;4.220;2023-03-29T03:33:59;8.90;1.00
41324;DHT22;27073;51.128;4.220;2023-03-29T03:36:34;8.90;1.00
41324;DHT22;27073;51.128;4.220;2023-03-29T03:39:00;8.80;1.00
41324;DHT22;27073;51.128;4.220;2023-03-29T03:41:27;8.90;1.00
41324;DHT22;27073;51.128;4.220;2023-03-29T03:43:53;8.80;1.00
41324;DHT22;27073;51.128;4.220;2023-03-29T03:46:19;8.80;1.00
41324;DHT22;27073;51.128;4.220;2023-03-29T03:48:45;8.80;1.00
41324;DHT22;27073;51.128;4.220;2023-03-29T03:51:21;8.90;1.00
41324;DHT22;27073;51.128;4.220;2023-03-29T03:53:48;8.90;1.00
41324;DHT22;27073;51.128;4.220;2023-03-29T03:56:34;8.80;1.00
41324;DHT22;27073;51.128;4.220;2023-03-29T03:59:05;8.90;1.00
41324;DHT22;27073;51.128;4.220;2023-03-29T04:02:09;9.00;1.00
41324;DHT22;27073;51.128;4.220;2023-03-29T04:04:36;9.10;1.00
41324;DHT22;27073;51.128;4.220;2023-03-29T04:07:17;9.20;1.00
41324;DHT22;27073;51.128;4.220;2023-03-29T04:10:03;9.10;1.00
41324;DHT22;27073;51.128;4.220;2023-03-29T04:12:30;9.00;1.00
41324;DHT22;27073;51.128;4.220;2023-03-29T04:14:57;9.00;1.00
41324;DHT22;27073;51.128;4.220;2023-03-29T04:17:25;9.00;1.00
41324;DHT22;27073;51.128;4.220;2023-03-29T04:19:51;9.00;1.00
41324;DHT22;27073;51.128;4.220;2023-03-29T04:22:18;9.00;1.00
41324;DHT22;27073;51.128;4.220;2023-03-29T04:24:44;9.00;1.00
41324;DHT22;27073;51.128;4.220;2023-03-29T04:27:31;8.90;1.00
41324;DHT22;27073;51.128;4.220;2023-03-29T04:29:59;8.90;1.00
41324;DHT22;27073;51.128;4.220;2023-03-29T04:32:45;8.90;1.00
41324;DHT22;27073;51.128;4.220;2023-03-29T04:35:10;8.90;1.00
41324;DHT22;27073;51.128;4.220;2023-03-29T04:37:37;9.00;1.00
41324;DHT22;27073;51.128;4.220;2023-03-29T04:40:07;8.90;1.00
41324;DHT22;27073;51.128;4.220;2023-03-29T04:42:48;8.90;1.00
41324;DHT22;27073;51.128;4.220;2023-03-29T04:45:15;9.10;1.00
41324;DHT22;27073;51.128;4.220;2023-03-29T04:48:23;9.00;1.00
41324;DHT22;27073;51.128;4.220;2023-03-29T04:50:49;9.00;1.80
41324;DHT22;27073;51.128;4.220;2023-03-29T04:53:17;9.00;1.00
41324;DHT22;27073;51.128;4.220;2023-03-29T04:55:45;9.00;1.00
41324;DHT22;27073;51.128;4.220;2023-03-29T04:58:15;9.10;3.40
41324;DHT22;27073;51.128;4.220;2023-03-29T05:00:42;9.10;6.00
41324;DHT22;27073;51.128;4.220;2023-03-29T05:03:37;9.20;1.00
41324;DHT22;27073;51.128;4.220;2023-03-29T05:06:14;9.10;1.00
41324;DHT22;27073;51.128;4.220;2023-03-29T05:08:41;9.20;3.40
41324;DHT22;27073;51.128;4.220;2023-03-29T05:11:18;9.20;1.80
41324;DHT22;27073;51.128;4.220;2023-03-29T05:13:44;9.20;1.00
41324;DHT22;27073;51.128;4.220;2023-03-29T05:16:10;9.10;1.00
41324;DHT22;27073;51.128;4.220;2023-03-29T05:18:36;9.00;6.10
41324;DHT22;27073;51.128;4.220;2023-03-29T05:21:03;9.00;11.30
41324;DHT22;27073;51.128;4.220;2023-03-29T05:23:30;9.00;9.20
41324;DHT22;27073;51.128;4.220;2023-03-29T05:26:14;8.90;16.20
41324;DHT22;27073;51.128;4.220;2023-03-29T05:28:45;9.00;17.00
41324;DHT22;27073;51.128;4.220;2023-03-29T05:31:10;9.10;17.60
41324;DHT22;27073;51.128;4.220;2023-03-29T05:33:38;9.10;15.10
41324;DHT22;27073;51.128;4.220;2023-03-29T05:36:09;9.00;15.20
41324;DHT22;27073;51.128;4.220;2023-03-29T05:38:41;9.10;17.90
41324;DHT22;27073;51.128;4.220;2023-03-29T05:41:10;9.20;16.30
41324;DHT22;27073;51.128;4.220;2023-03-29T05:43:54;9.20;15.20
41324;DHT22;27073;51.128;4.220;2023-03-29T05:46:23;9.10;20.80
41324;DHT22;27073;51.128;4.220;2023-03-29T05:48:52;9.20;21.30
41324;DHT22;27073;51.128;4.220;2023-03-29T05:51:20;9.30;18.60
41324;DHT22;27073;51.128;4.220;2023-03-29T05:53:51;9.30;23.30
41324;DHT22;27073;51.128;4.220;2023-03-29T05:56:17;9.40;18.60
41324;DHT22;27073;51.128;4.220;2023-03-29T05:58:43;9.40;17.50
41324;DHT22;27073;51.128;4.220;2023-03-29T06:01:12;9.30;15.70
41324;DHT22;27073;51.128;4.220;2023-03-29T06:04:01;9.10;26.50
41324;DHT22;27073;51.128;4.220;2023-03-29T06:06:36;9.10;29.70
41324;DHT22;27073;51.128;4.220;2023-03-29T06:09:02;9.20;33.20
41324;DHT22;27073;51.128;4.220;2023-03-29T06:11:51;9.20;31.30
41324;DHT22;27073;51.128;4.220;2023-03-29T06:14:22;9.30;31.00
41324;DHT22;27073;51.128;4.220;2023-03-29T06:16:55;9.40;29.10
41324;DHT22;27073;51.128;4.220;2023-03-29T06:19:22;9.30;30.40
41324;DHT22;27073;51.128;4.220;2023-03-29T06:21:49;9.30;35.80
41324;DHT22;27073;51.128;4.220;2023-03-29T06:24:21;9.30;38.50
41324;DHT22;27073;51.128;4.220;2023-03-29T06:26:54;9.50;35.90
41324;DHT22;27073;51.128;4.220;2023-03-29T06:29:21;9.50;33.60
41324;DHT22;27073;51.128;4.220;2023-03-29T06:31:50;9.50;36.00
41324;DHT22;27073;51.128;4.220;2023-03-29T06:34:41;9.70;32.90
41324;DHT22;27073;51.128;4.220;2023-03-29T06:37:27;9.70;32.40
41324;DHT22;27073;51.128;4.220;2023-03-29T06:40:17;9.70;37.90
41324;DHT22;27073;51.128;4.220;2023-03-29T06:42:49;9.80;30.40
41324;DHT22;27073;51.128;4.220;2023-03-29T06:45:43;9.70;41.00
41324;DHT22;27073;51.128;4.220;2023-03-29T06:48:18;9.60;47.00
41324;DHT22;27073;51.128;4.220;2023-03-29T06:50:46;9.60;47.40
41324;DHT22;27073;51.128;4.220;2023-03-29T06:53:14;9.70;49.30
41324;DHT22;27073;51.128;4.220;2023-03-29T06:55:42;9.80;50.40
41324;DHT22;27073;51.128;4.220;2023-03-29T06:58:31;9.70;49.80
41324;DHT22;27073;51.128;4.220;2023-03-29T07:01:04;9.70;59.00
41324;DHT22;27073;51.128;4.220;2023-03-29T07:03:48;9.50;67.10
41324;DHT22;27073;51.128;4.220;2023-03-29T07:06:18;9.60;74.50
41324;DHT22;27073;51.128;4.220;2023-03-29T07:08:47;9.70;76.80
41324;DHT22;27073;51.128;4.220;2023-03-29T07:11:19;9.70;73.00
41324;DHT22;27073;51.128;4.220;2023-03-29T07:13:51;9.60;73.80
41324;DHT22;27073;51.128;4.220;2023-03-29T07:16:18;9.70;79.20
41324;DHT22;27073;51.128;4.220;2023-03-29T07:19:05;9.70;77.90
41324;DHT22;27073;51.128;4.220;2023-03-29T07:21:50;9.80;78.20
41324;DHT22;27073;51.128;4.220;2023-03-29T07:24:17;9.80;78.00
41324;DHT22;27073;51.128;4.220;2023-03-29T07:26:45;9.70;83.90
41324;DHT22;27073;51.128;4.220;2023-03-29T07:29:13;9.70;91.40
41324;DHT22;27073;51.128;4.220;2023-03-29T07:31:39;9.60;94.60
41324;DHT22;27073;51.128;4.220;2023-03-29T07:34:29;9.50;98.00
41324;DHT22;27073;51.128;4.220;2023-03-29T07:36:56;9.50;98.80
41324;DHT22;27073;51.128;4.220;2023-03-29T07:39:23;9.60;99.90
41324;DHT22;27073;51.128;4.220;2023-03-29T07:42:16;9.50;99.90
41324;DHT22;27073;51.128;4.220;2023-03-29T07:44:45;9.40;99.90
41324;DHT22;27073;51.128;4.220;2023-03-29T07:47:13;9.30;99.90
41324;DHT22;27073;51.128;4.220;2023-03-29T07:49:40;9.50;99.90
41324;DHT22;27073;51.128;4.220;2023-03-29T07:52:07;9.40;99.90
41324;DHT22;27073;51.128;4.220;2023-03-29T07:54:33;9.40;99.90
41324;DHT22;27073;51.128;4.220;2023-03-29T07:57:25;9.60;99.90
41324;DHT22;27073;51.128;4.220;2023-03-29T07:59:53;9.60;99.90
41324;DHT22;27073;51.128;4.220;2023-03-29T08:02:25;9.40;99.90
41324;DHT22;27073;51.128;4.220;2023-03-29T08:04:55;9.50;99.90
41324;DHT22;27073;51.128;4.220;2023-03-29T08:07:57;9.70;99.90
41324;DHT22;27073;51.128;4.220;2023-03-29T08:10:41;9.60;99.90
41324;DHT22;27073;51.128;4.220;2023-03-29T08:13:27;9.70;99.90
41324;DHT22;27073;51.128;4.220;2023-03-29T08:16:28;9.60;99.90
41324;DHT22;27073;51.128;4.220;2023-03-29T08:19:03;9.90;99.90
41324;DHT22;27073;51.128;4.220;2023-03-29T08:21:45;10.10;99.90
41324;DHT22;27073;51.128;4.220;2023-03-29T08:24:13;10.00;99.90
41324;DHT22;27073;51.128;4.220;2023-03-29T08:26:51;10.00;99.90
41324;DHT22;27073;51.128;4.220;2023-03-29T08:29:18;10.30;99.90
41324;DHT22;27073;51.128;4.220;2023-03-29T08:31:44;10.60;99.90
41324;DHT22;27073;51.128;4.220;2023-03-29T08:34:10;10.70;99.90
41324;DHT22;27073;51.128;4.220;2023-03-29T08:36:44;10.80;99.90
41324;DHT22;27073;51.128;4.220;2023-03-29T08:39:23;11.00;99.90
41324;DHT22;27073;51.128;4.220;2023-03-29T08:42:29;11.30;99.90
41324;DHT22;27073;51.128;4.220;2023-03-29T08:50:42;11.50;99.90
41324;DHT22;27073;51.128;4.220;2023-03-29T08:53:16;11.70;99.90
41324;DHT22;27073;51.128;4.220;2023-03-29T08:56:09;11.60;96.20
41324;DHT22;27073;51.128;4.220;2023-03-29T08:59:25;11.40;99.90
41324;DHT22;27073;51.128;4.220;2023-03-29T09:01:55;11.10;99.00
41324;DHT22;27073;51.128;4.220;2023-03-29T09:04:25;11.10;98.10
41324;DHT22;27073;51.128;4.220;2023-03-29T09:07:01;11.40;99.90
41324;DHT22;27073;51.128;4.220;2023-03-29T09:09:34;11.50;95.70
41324;DHT22;27073;51.128;4.220;2023-03-29T09:12:29;11.40;93.40
41324;DHT22;27073;51.128;4.220;2023-03-29T09:15:23;11.50;93.40
41324;DHT22;27073;51.128;4.220;2023-03-29T09:18:09;11.40;91.50
41324;DHT22;27073;51.128;4.220;2023-03-29T09:23:34;11.90;90.40
41324;DHT22;27073;51.128;4.220;2023-03-29T09:29:39;11.70;91.80
41324;DHT22;27073;51.128;4.220;2023-03-29T09:32:23;11.80;91.50
41324;DHT22;27073;51.128;4.220;2023-03-29T09:35:13;12.00;87.20
41324;DHT22;27073;51.128;4.220;2023-03-29T09:37:45;11.90;90.10
41324;DHT22;27073;51.128;4.220;2023-03-29T09:40:16;11.90;90.90
41324;DHT22;27073;51.128;4.220;2023-03-29T09:43:00;12.00;87.00
41324;DHT22;27073;51.128;4.220;2023-03-29T09:45:29;12.10;88.70
41324;DHT22;27073;51.128;4.220;2023-03-29T09:50:43;12.10;87.20
41324;DHT22;27073;51.128;4.220;2023-03-29T09:53:14;12.10;88.70
41324;DHT22;27073;51.128;4.220;2023-03-29T09:55:48;12.20;90.20
41324;DHT22;27073;51.128;4.220;2023-03-29T09:58:42;12.40;89.10
41324;DHT22;27073;51.128;4.220;2023-03-29T10:01:13;12.40;85.30
41324;DHT22;27073;51.128;4.220;2023-03-29T10:03:40;12.40;84.50
41324;DHT22;27073;51.128;4.220;2023-03-29T10:06:11;12.40;87.00
41324;DHT22;27073;51.128;4.220;2023-03-29T10:08:44;12.40;88.50
41324;DHT22;27073;51.128;4.220;2023-03-29T10:11:16;12.70;87.60
41324;DHT22;27073;51.128;4.220;2023-03-29T10:13:46;12.80;84.10
41324;DHT22;27073;51.128;4.220;2023-03-29T10:16:21;12.90;80.80
41324;DHT22;27073;51.128;4.220;2023-03-29T10:18:48;13.00;78.10
41324;DHT22;27073;51.128;4.220;2023-03-29T10:21:16;13.20;74.70
41324;DHT22;27073;51.128;4.220;2023-03-29T10:23:42;13.40;76.60
41324;DHT22;27073;51.128;4.220;2023-03-29T10:26:32;13.60;70.00
41324;DHT22;27073;51.128;4.220;2023-03-29T10:28:58;13.60;68.50
41324;DHT22;27073;51.128;4.220;2023-03-29T10:31:28;13.70;68.10
41324;DHT22;27073;51.128;4.220;2023-03-29T10:33:57;13.60;64.90
41324;DHT22;27073;51.128;4.220;2023-03-29T10:36:27;13.60;68.10
41324;DHT22;27073;51.128;4.220;2023-03-29T10:38:56;13.70;60.80
41324;DHT22;27073;51.128;4.220;2023-03-29T10:41:24;13.40;62.50
41324;DHT22;27073;51.128;4.220;2023-03-29T10:43:52;13.40;67.70
41324;DHT22;27073;51.128;4.220;2023-03-29T10:46:28;13.60;67.70
41324;DHT22;27073;51.128;4.220;2023-03-29T10:51:23;13.90;60.90
41324;DHT22;27073;51.128;4.220;2023-03-29T10:53:49;14.10;56.50
41324;DHT22;27073;51.128;4.220;2023-03-29T10:58:58;13.90;58.70
41324;DHT22;27073;51.128;4.220;2023-03-29T11:29:33;14.40;48.10
41324;DHT22;27073;51.128;4.220;2023-03-29T11:32:15;14.40;52.50
41324;DHT22;27073;51.128;4.220;2023-03-29T11:34:48;14.40;56.60
41324;DHT22;27073;51.128;4.220;2023-03-29T11:38:20;14.30;54.70
41324;DHT22;27073;51.128;4.220;2023-03-29T11:43:10;14.30;59.90
41324;DHT22;27073;51.128;4.220;2023-03-29T11:45:49;14.30;64.00
41324;DHT22;27073;51.128;4.220;2023-03-29T11:48:21;14.30;65.40
41324;DHT22;27073;51.128;4.220;2023-03-29T11:50:57;14.30;64.70
41324;DHT22;27073;51.128;4.220;2023-03-29T11:56:56;14.40;62.50
41324;DHT22;27073;51.128;4.220;2023-03-29T12:02:10;14.60;64.30
41324;DHT22;27073;51.128;4.220;2023-03-29T12:04:44;14.90;52.80
41324;DHT22;27073;51.128;4.220;2023-03-29T12:07:30;14.90;52.80
41324;DHT22;27073;51.128;4.220;2023-03-29T12:10:07;15.00;48.80
41324;DHT22;27073;51.128;4.220;2023-03-29T12:12:54;15.00;46.90
41324;DHT22;27073;51.128;4.220;2023-03-29T12:15:24;15.10;46.00
41324;DHT22;27073;51.128;4.220;2023-03-29T12:20:30;15.00;49.50
41324;DHT22;27073;51.128;4.220;2023-03-29T12:23:00;15.00;44.90
41324;DHT22;27073;51.128;4.220;2023-03-29T12:25:36;15.00;51.30
41324;DHT22;27073;51.128;4.220;2023-03-29T12:33:48;15.30;49.60
41324;DHT22;27073;51.128;4.220;2023-03-29T12:39:35;15.40;35.20
41324;DHT22;27073;51.128;4.220;2023-03-29T12:42:21;15.70;32.40
41324;DHT22;27073;51.128;4.220;2023-03-29T12:45:29;15.80;19.00
41324;DHT22;27073;51.128;4.220;2023-03-29T12:47:56;15.60;20.00
41324;DHT22;27073;51.128;4.220;2023-03-29T12:50:26;15.70;20.50
41324;DHT22;27073;51.128;4.220;2023-03-29T12:53:02;15.60;15.50
41324;DHT22;27073;51.128;4.220;2023-03-29T12:56:05;15.50;17.50
41324;DHT22;27073;51.128;4.220;2023-03-29T13:03:41;15.70;25.40
41324;DHT22;27073;51.128;4.220;2023-03-29T13:06:12;15.80;19.60
41324;DHT22;27073;51.128;4.220;2023-03-29T13:08:41;15.90;18.00
41324;DHT22;27073;51.128;4.220;2023-03-29T13:11:22;16.20;12.70
41324;DHT22;27073;51.128;4.220;2023-03-29T13:13:50;16.20;6.70
41324;DHT22;27073;51.128;4.220;2023-03-29T13:16:18;16.30;8.70
41324;DHT22;27073;51.128;4.220;2023-03-29T13:21:49;16.20;10.60
41324;DHT22;27073;51.128;4.220;2023-03-29T13:24:36;16.20;10.30
41324;DHT22;27073;51.128;4.220;2023-03-29T13:32:53;15.60;27.90
41324;DHT22;27073;51.128;4.220;2023-03-29T13:38:22;15.90;28.40
41324;DHT22;27073;51.128;4.220;2023-03-29T13:41:05;15.90;27.90
41324;DHT22;27073;51.128;4.220;2023-03-29T13:48:30;16.40;16.60
41324;DHT22;27073;51.128;4.220;2023-03-29T13:51:03;16.50;9.50
41324;DHT22;27073;51.128;4.220;2023-03-29T13:56:35;16.40;21.60
41324;DHT22;27073;51.128;4.220;2023-03-29T13:59:19;16.50;12.60
41324;DHT22;27073;51.128;4.220;2023-03-29T14:01:54;16.30;19.90
41324;DHT22;27073;51.128;4.220;2023-03-29T14:04:25;16.30;24.00
41324;DHT22;27073;51.128;4.220;2023-03-29T14:06:54;16.40;22.60
41324;DHT22;27073;51.128;4.220;2023-03-29T14:09:24;16.50;23.80
41324;DHT22;27073;51.128;4.220;2023-03-29T14:11:52;16.20;27.90
41324;DHT22;27073;51.128;4.220;2023-03-29T14:14:22;16.20;33.70
41324;DHT22;27073;51.128;4.220;2023-03-29T14:16:49;16.30;32.40
41324;DHT22;27073;51.128;4.220;2023-03-29T14:19:27;16.30;38.40
41324;DHT22;27073;51.128;4.220;2023-03-29T14:21:54;16.40;31.90
41324;DHT22;27073;51.128;4.220;2023-03-29T14:24:24;16.40;33.80
41324;DHT22;27073;51.128;4.220;2023-03-29T14:26:51;16.60;27.70
41324;DHT22;27073;51.128;4.220;2023-03-29T14:29:17;16.60;27.10
41324;DHT22;27073;51.128;4.220;2023-03-29T14:31:43;16.60;30.10
41324;DHT22;27073;51.128;4.220;2023-03-29T14:34:16;16.70;27.30
41324;DHT22;27073;51.128;4.220;2023-03-29T14:36:44;16.80;24.60
41324;DHT22;27073;51.128;4.220;2023-03-29T14:39:19;16.70;29.60
41324;DHT22;27073;51.128;4.220;2023-03-29T14:41:51;16.70;29.80
41324;DHT22;27073;51.128;4.220;2023-03-29T14:44:19;16.80;32.10
41324;DHT22;27073;51.128;4.220;2023-03-29T14:46:46;16.60;33.70
41324;DHT22;27073;51.128;4.220;2023-03-29T14:49:15;16.70;35.10
41324;DHT22;27073;51.128;4.220;2023-03-29T14:51:46;16.70;34.70
41324;DHT22;27073;51.128;4.220;2023-03-29T14:54:22;16.90;30.00
41324;DHT22;27073;51.128;4.220;2023-03-29T14:56:50;16.80;32.90
41324;DHT22;27073;51.128;4.220;2023-03-29T14:59:36;16.70;36.90
41324;DHT22;27073;51.128;4.220;2023-03-29T15:02:02;16.90;36.40
41324;DHT22;27073;51.128;4.220;2023-03-29T15:04:33;16.90;34.40
41324;DHT22;27073;51.128;4.220;2023-03-29T15:06:59;17.00;29.80
41324;DHT22;27073;51.128;4.220;2023-03-29T15:09:30;16.90;34.10
41324;DHT22;27073;51.128;4.220;2023-03-29T15:11:59;17.00;36.60
41324;DHT22;27073;51.128;4.220;2023-03-29T15:14:30;17.00;33.10
41324;DHT22;27073;51.128;4.220;2023-03-29T15:17:28;17.10;31.10
41324;DHT22;27073;51.128;4.220;2023-03-29T15:20:07;17.10;32.50
41324;DHT22;27073;51.128;4.220;2023-03-29T15:22:38;17.30;30.80
41324;DHT22;27073;51.128;4.220;2023-03-29T15:25:15;17.50;21.40
41324;DHT22;27073;51.128;4.220;2023-03-29T15:27:42;17.50;23.60
41324;DHT22;27073;51.128;4.220;2023-03-29T15:30:12;17.60;17.70
41324;DHT22;27073;51.128;4.220;2023-03-29T15:32:38;17.80;16.30
41324;DHT22;27073;51.128;4.220;2023-03-29T15:35:06;18.00;13.20
41324;DHT22;27073;51.128;4.220;2023-03-29T15:37:34;17.90;10.60
41324;DHT22;27073;51.128;4.220;2023-03-29T15:40:00;17.90;17.40
41324;DHT22;27073;51.128;4.220;2023-03-29T15:42:32;18.00;15.30
41324;DHT22;27073;51.128;4.220;2023-03-29T15:45:03;18.20;2.70
41324;DHT22;27073;51.128;4.220;2023-03-29T15:47:30;18.20;8.70
41324;DHT22;27073;51.128;4.220;2023-03-29T15:49:56;18.30;1.00
41324;DHT22;27073;51.128;4.220;2023-03-29T15:52:23;18.50;1.00
41324;DHT22;27073;51.128;4.220;2023-03-29T15:54:49;18.10;2.10
41324;DHT22;27073;51.128;4.220;2023-03-29T15:57:14;18.00;5.70
41324;DHT22;27073;51.128;4.220;2023-03-29T15:59:42;18.00;7.70
41324;DHT22;27073;51.128;4.220;2023-03-29T16:02:14;17.90;10.20
41324;DHT22;27073;51.128;4.220;2023-03-29T16:04:44;17.90;5.20
41324;DHT22;27073;51.128;4.220;2023-03-29T16:07:13;17.50;13.20
41324;DHT22;27073;51.128;4.220;2023-03-29T16:09:40;17.40;9.50
41324;DHT22;27073;51.128;4.220;2023-03-29T16:12:06;17.30;13.60
41324;DHT22;27073;51.128;4.220;2023-03-29T16:14:32;17.20;18.20
41324;DHT22;27073;51.128;4.220;2023-03-29T16:16:59;17.10;18.00
41324;DHT22;27073;51.128;4.220;2023-03-29T16:19:26;17.00;20.20
41324;DHT22;27073;51.128;4.220;2023-03-29T16:21:53;17.00;22.20
41324;DHT22;27073;51.128;4.220;2023-03-29T16:24:21;17.10;21.60
41324;DHT22;27073;51.128;4.220;2023-03-29T16:26:49;17.10;19.40
41324;DHT22;27073;51.128;4.220;2023-03-29T16:29:15;17.00;22.00
41324;DHT22;27073;51.128;4.220;2023-03-29T16:31:45;16.80;25.50
41324;DHT22;27073;51.128;4.220;2023-03-29T16:34:12;16.80;29.50
41324;DHT22;27073;51.128;4.220;2023-03-29T16:36:39;16.70;29.30
41324;DHT22;27073;51.128;4.220;2023-03-29T16:39:05;16.70;31.10
41324;DHT22;27073;51.128;4.220;2023-03-29T16:41:31;16.70;33.50
41324;DHT22;27073;51.128;4.220;2023-03-29T16:43:57;16.70;33.50
41324;DHT22;27073;51.128;4.220;2023-03-29T16:46:23;16.70;37.50
41324;DHT22;27073;51.128;4.220;2023-03-29T16:48:49;16.70;37.00
41324;DHT22;27073;51.128;4.220;2023-03-29T16:51:18;16.70;37.90
41324;DHT22;27073;51.128;4.220;2023-03-29T16:53:45;16.70;37.00
41324;DHT22;27073;51.128;4.220;2023-03-29T16:56:12;16.60;40.90
41324;DHT22;27073;51.128;4.220;2023-03-29T16:58:40;16.60;39.20
41324;DHT22;27073;51.128;4.220;2023-03-29T17:01:14;16.50;43.50
41324;DHT22;27073;51.128;4.220;2023-03-29T17:03:40;16.50;46.10
41324;DHT22;27073;51.128;4.220;2023-03-29T17:06:08;16.60;43.90
41324;DHT22;27073;51.128;4.220;2023-03-29T17:08:34;16.60;43.70
41324;DHT22;27073;51.128;4.220;2023-03-29T17:11:00;16.50;45.10
41324;DHT22;27073;51.128;4.220;2023-03-29T17:13:27;16.50;48.10
41324;DHT22;27073;51.128;4.220;2023-03-29T17:15:54;16.50;45.20
41324;DHT22;27073;51.128;4.220;2023-03-29T17:18:22;16.50;50.40
41324;DHT22;27073;51.128;4.220;2023-03-29T17:20:51;16.40;52.30
41324;DHT22;27073;51.128;4.220;2023-03-29T17:23:19;16.40;53.90
41324;DHT22;27073;51.128;4.220;2023-03-29T17:25:45;16.40;55.10
41324;DHT22;27073;51.128;4.220;2023-03-29T17:28:11;16.40;56.00
41324;DHT22;27073;51.128;4.220;2023-03-29T17:30:37;16.30;58.70
41324;DHT22;27073;51.128;4.220;2023-03-29T17:33:03;16.30;59.90
41324;DHT22;27073;51.128;4.220;2023-03-29T17:35:30;16.20;60.90
41324;DHT22;27073;51.128;4.220;2023-03-29T17:37:56;16.20;63.50
41324;DHT22;27073;51.128;4.220;2023-03-29T17:40:23;16.20;64.80
41324;DHT22;27073;51.128;4.220;2023-03-29T17:42:49;16.20;64.50
41324;DHT22;27073;51.128;4.220;2023-03-29T17:45:17;16.20;62.70
41324;DHT22;27073;51.128;4.220;2023-03-29T17:47:42;16.10;63.30
41324;DHT22;27073;51.128;4.220;2023-03-29T17:50:10;16.10;65.10
41324;DHT22;27073;51.128;4.220;2023-03-29T17:52:36;16.10;63.70
41324;DHT22;27073;51.128;4.220;2023-03-29T17:55:05;16.10;64.20
41324;DHT22;27073;51.128;4.220;2023-03-29T17:57:39;16.00;65.30
41324;DHT22;27073;51.128;4.220;2023-03-29T18:00:07;16.00;64.70